Time;durP1;ratioP1;P1;durP2;ratioP2;P2;SDS_P1;SDS_P2;PMS_P1;PMS_P2;Temp;Humidity;BMP_temperature;BMP_pressure;BME280_temperature;BME280_humidity;BME280_pressure;Samples;Min_cycle;Max_cycle;Signal;HPM_P1;HPM_P2
2022/06/21 00:01:31;;;;;;;9.57;4.32;;;;;;;16.83;54.57;101629.88;4974258;28;20109;-69
2022/06/21 00:03:58;;;;;;;6.00;3.95;;;;;;;16.82;54.42;101633.81;4981316;28;20173;-69
2022/06/21 00:06:25;;;;;;;9.10;4.28;;;;;;;16.75;54.78;101622.00;4990997;28;20136;-69
2022/06/21 00:08:52;;;;;;;11.20;4.28;;;;;;;16.75;54.77;101622.00;4977287;28;20034;-70
2022/06/21 00:11:23;;;;;;;8.43;4.38;;;;;;;16.71;54.76;101634.84;4958547;28;20035;-69
2022/06/21 00:13:48;;;;;;;12.80;4.85;;;;;;;16.65;54.84;101633.97;4989032;28;20038;-69
2022/06/21 00:16:14;;;;;;;6.97;4.07;;;;;;;16.69;54.86;101631.47;4986212;28;20058;-70
2022/06/21 00:18:42;;;;;;;9.98;4.20;;;;;;;16.64;54.92;101634.28;4986395;28;20027;-70
2022/06/21 00:21:39;;;;;;;11.60;4.22;;;;;;;16.72;54.09;101636.53;4985544;28;20085;-69
2022/06/21 00:24:05;;;;;;;6.97;4.10;;;;;;;16.57;55.00;101630.88;4967066;28;20043;-70
2022/06/21 00:26:31;;;;;;;7.38;4.57;;;;;;;16.48;55.01;101627.75;4980599;28;20027;-69
2022/06/21 00:28:57;;;;;;;9.70;4.78;;;;;;;16.39;54.97;101633.06;4968015;28;20406;-69
2022/06/21 00:31:30;;;;;;;8.25;4.68;;;;;;;16.40;54.92;101631.94;4977382;28;20023;-70
2022/06/21 00:33:55;;;;;;;;;;;;;;;16.73;53.29;101626.16;4990108;28;20386;-69
2022/06/21 00:36:25;;;;;;;6.75;4.82;;;;;;;16.39;55.17;101627.44;4976066;28;19914;-69
2022/06/21 00:38:53;;;;;;;9.20;4.93;;;;;;;16.33;55.44;101625.72;4991248;28;20015;-69
2022/06/21 00:41:37;;;;;;;11.57;5.05;;;;;;;16.26;55.62;101622.34;4983779;28;20034;-69
2022/06/21 00:44:06;;;;;;;7.53;5.32;;;;;;;16.20;55.78;101629.03;4981500;28;20050;-70
2022/06/21 00:46:45;;;;;;;10.07;5.53;;;;;;;16.25;55.34;101631.03;4977316;28;20059;-70
2022/06/21 00:49:20;;;;;;;6.40;5.47;;;;;;;16.23;55.38;101634.09;4988761;28;20134;-70
2022/06/21 00:51:48;;;;;;;12.38;6.30;;;;;;;16.11;55.72;101620.31;4968339;28;20380;-68
2022/06/21 00:54:23;;;;;;;10.68;5.93;;;;;;;16.06;55.66;101625.03;4991739;28;20026;-70
2022/06/21 00:57:04;;;;;;;12.35;6.40;;;;;;;16.10;55.09;101620.56;4980579;28;20469;-69
2022/06/21 00:59:32;;;;;;;9.05;6.57;;;;;;;16.05;55.68;101623.34;4977023;28;20035;-70
2022/06/21 01:02:05;;;;;;;12.82;7.15;;;;;;;15.94;55.75;101619.63;4977293;28;20042;-70
2022/06/21 01:04:35;;;;;;;12.55;7.30;;;;;;;15.94;55.78;101609.28;4976447;28;20066;-69
2022/06/21 01:07:03;;;;;;;12.00;7.53;;;;;;;15.88;55.75;101610.38;4974964;28;20043;-69
2022/06/21 01:09:35;;;;;;;13.10;7.90;;;;;;;15.87;55.94;101589.06;4975192;28;20390;-70
2022/06/21 01:12:04;;;;;;;15.48;10.52;;;;;;;15.88;55.83;101584.34;4977837;28;20031;-69
2022/06/21 01:14:32;;;;;;;15.55;12.02;;;;;;;15.81;55.91;101578.97;4982376;28;20045;-70
2022/06/21 01:16:58;;;;;;;17.38;12.55;;;;;;;15.73;55.83;101582.28;4989884;28;20027;-69
2022/06/21 01:19:40;;;;;;;17.67;11.95;;;;;;;15.78;55.63;101585.09;4964045;28;20066;-70
2022/06/21 01:22:23;;;;;;;17.58;11.55;;;;;;;15.77;55.70;101583.44;4984140;28;20053;-70
2022/06/21 01:24:48;;;;;;;;;;;;;;;16.03;54.22;101586.34;4978589;28;20033;-70
2022/06/21 01:27:14;;;;;;;14.38;9.80;;;;;;;15.67;56.01;101586.97;4975236;28;19918;-70
2022/06/21 01:29:40;;;;;;;13.18;9.40;;;;;;;15.71;56.01;101585.31;4986881;28;20305;-70
2022/06/21 01:32:06;;;;;;;15.07;8.98;;;;;;;15.66;56.24;101587.25;4978587;28;20038;-70
2022/06/21 01:34:32;;;;;;;16.00;8.43;;;;;;;15.57;56.63;101584.09;4974032;28;20035;-70
2022/06/21 01:37:26;;;;;;;10.40;7.82;;;;;;;15.56;56.52;101571.22;4974585;28;20114;-70
2022/06/21 01:39:57;;;;;;;11.10;7.63;;;;;;;15.53;56.46;101579.31;4967718;28;20448;-70
2022/06/21 01:42:50;;;;;;;9.30;7.43;;;;;;;15.61;56.18;101579.66;4984646;28;20042;-71
2022/06/21 01:45:23;;;;;;;9.50;6.50;;;;;;;15.50;56.65;101585.44;4985269;28;20042;-70
2022/06/21 01:48:11;;;;;;;10.02;6.15;;;;;;;15.54;56.48;101589.38;4971948;28;20035;-70
2022/06/21 01:50:38;;;;;;;11.00;6.25;;;;;;;15.42;57.22;101589.56;4966534;28;20047;-70
2022/06/21 01:53:06;;;;;;;10.27;6.55;;;;;;;15.36;56.89;101583.06;4994284;28;20026;-70
2022/06/21 01:55:41;;;;;;;9.18;6.15;;;;;;;15.34;57.09;101582.53;4984535;28;20486;-70
2022/06/21 01:58:11;;;;;;;8.18;5.90;;;;;;;15.33;57.14;101578.03;4987692;28;20034;-70
2022/06/21 02:00:42;;;;;;;11.13;6.13;;;;;;;15.28;57.30;101574.34;4960271;28;20498;-70
2022/06/21 02:03:15;;;;;;;9.07;5.57;;;;;;;15.28;57.65;101579.94;4989094;28;20473;-69
2022/06/21 02:05:46;;;;;;;8.63;5.05;;;;;;;15.25;57.47;101581.34;4980667;28;20033;-69
2022/06/21 02:08:15;;;;;;;10.93;6.18;;;;;;;15.27;57.72;101576.31;4986845;28;20040;-71
2022/06/21 02:10:46;;;;;;;10.40;5.63;;;;;;;15.21;57.96;101569.00;4991265;28;20023;-70
2022/06/21 02:13:26;;;;;;;11.55;5.47;;;;;;;15.26;57.78;101568.19;4983494;28;20049;-70
2022/06/21 02:15:58;;;;;;;9.23;5.43;;;;;;;15.23;57.86;101564.81;4967304;28;20031;-70
2022/06/21 02:18:27;;;;;;;9.18;5.43;;;;;;;15.23;57.98;101562.00;4991214;28;20034;-70
2022/06/21 02:20:58;;;;;;;11.45;5.65;;;;;;;15.15;58.24;101561.66;4972261;28;20031;-70
2022/06/21 02:23:24;;;;;;;11.38;5.45;;;;;;;15.19;58.33;101560.03;4988941;28;20101;-70
2022/06/21 02:25:55;;;;;;;13.63;5.97;;;;;;;15.11;58.18;101554.91;4970953;28;20117;-70
2022/06/21 02:28:21;;;;;;;12.93;5.68;;;;;;;15.13;57.83;101550.75;4978982;28;20093;-70
2022/06/21 02:30:50;;;;;;;10.80;5.55;;;;;;;15.13;57.91;101549.88;4989009;28;20098;-70
2022/06/21 02:33:23;;;;;;;9.40;6.00;;;;;;;15.10;58.19;101545.69;4984576;28;20022;-70
2022/06/21 02:35:59;;;;;;;11.15;5.57;;;;;;;15.14;58.08;101532.84;4987006;28;20049;-70
2022/06/21 02:38:58;;;;;;;9.82;5.40;;;;;;;15.24;57.13;101526.50;4981456;28;20058;-70
2022/06/21 02:41:29;;;;;;;13.80;5.82;;;;;;;15.01;58.20;101529.66;4957119;28;20042;-69
2022/06/21 02:44:15;;;;;;;10.02;5.78;;;;;;;15.07;57.84;101534.19;4969534;28;20034;-70
2022/06/21 02:46:45;;;;;;;8.95;5.65;;;;;;;14.94;58.06;101536.31;4982704;28;20022;-70
2022/06/21 02:49:17;;;;;;;8.15;5.35;;;;;;;14.91;58.31;101547.19;4974177;28;20130;-70
2022/06/21 02:51:50;;;;;;;12.40;5.65;;;;;;;14.99;58.43;101543.91;4956372;28;20031;-70
2022/06/21 02:54:22;;;;;;;8.48;5.57;;;;;;;14.98;58.65;101547.81;4970113;28;20039;-69
2022/06/21 02:57:05;;;;;;;10.38;5.90;;;;;;;14.92;58.18;101549.72;4957004;28;20038;-69
2022/06/21 02:59:34;;;;;;;9.45;5.82;;;;;;;14.92;58.41;101555.31;4962998;28;20089;-69
2022/06/21 03:02:07;;;;;;;8.88;5.75;;;;;;;14.91;58.71;101548.03;4967181;28;20101;-69
2022/06/21 03:04:58;;;;;;;8.65;5.70;;;;;;;15.00;58.03;101553.13;4974212;28;20471;-70
2022/06/21 03:07:27;;;;;;;10.93;6.18;;;;;;;14.83;58.37;101548.50;4959838;28;20042;-70
2022/06/21 03:09:54;;;;;;;10.73;6.30;;;;;;;14.79;58.70;101544.56;4967004;28;20107;-70
2022/06/21 03:12:23;;;;;;;8.95;5.82;;;;;;;14.77;58.81;101551.50;4966179;28;20045;-70
2022/06/21 03:14:55;;;;;;;10.60;5.78;;;;;;;14.76;58.90;101556.25;4964352;28;20039;-69
2022/06/21 03:17:29;;;;;;;10.40;6.03;;;;;;;14.78;58.89;101551.28;4968370;28;20035;-69
2022/06/21 03:19:54;;;;;;;9.90;5.80;;;;;;;14.71;58.84;101550.63;4969559;28;20042;-69
2022/06/21 03:22:30;;;;;;;7.65;5.95;;;;;;;14.68;58.59;101549.19;4969589;28;20057;-70
2022/06/21 03:25:00;;;;;;;8.35;5.80;;;;;;;14.60;58.59;101557.22;4969702;28;20501;-70
2022/06/21 03:27:37;;;;;;;10.27;6.18;;;;;;;14.67;58.55;101557.84;4970892;28;20038;-70
2022/06/21 03:30:05;;;;;;;12.80;6.53;;;;;;;14.59;58.75;101549.94;4973818;28;20475;-70
2022/06/21 03:32:34;;;;;;;9.27;6.80;;;;;;;14.52;59.09;101550.16;4968542;28;20031;-70
2022/06/21 03:35:02;;;;;;;13.07;6.90;;;;;;;14.51;58.81;101542.03;4960966;28;20030;-70
2022/06/21 03:37:27;;;;;;;10.20;6.32;;;;;;;14.47;59.11;101545.31;4970462;28;20026;-69
2022/06/21 03:42:41;;;;;;;11.15;6.80;;;;;;;14.42;59.30;101530.44;4970618;28;20406;-70
2022/06/21 03:45:17;;;;;;;9.85;6.63;;;;;;;14.40;59.37;101530.72;4970443;28;20466;-69
2022/06/21 03:47:51;;;;;;;10.18;6.32;;;;;;;14.44;58.93;101531.88;4963841;28;20078;-70
2022/06/21 03:50:25;;;;;;;10.60;6.88;;;;;;;14.46;59.27;101538.06;4948578;28;20075;-70
2022/06/21 03:53:02;;;;;;;12.57;7.35;;;;;;;14.46;59.27;101512.03;4953886;28;20038;-69
2022/06/21 03:55:33;;;;;;;14.68;6.95;;;;;;;14.48;59.02;101519.06;4957248;28;20027;-69
2022/06/21 03:58:28;;;;;;;13.27;7.35;;;;;;;14.49;59.03;101519.94;4947301;28;20043;-70
2022/06/21 04:01:21;;;;;;;11.07;6.75;;;;;;;14.44;59.31;101537.47;4950616;28;20032;-70
2022/06/21 04:03:46;;;;;;;14.48;6.55;;;;;;;14.40;59.06;101529.88;4951855;28;20152;-69
2022/06/21 04:06:15;;;;;;;13.65;7.03;;;;;;;14.35;59.29;101535.41;4952101;28;20073;-70
2022/06/21 04:08:51;;;;;;;13.60;7.63;;;;;;;14.41;59.40;101528.75;4939811;28;20505;-70
2022/06/21 04:11:22;;;;;;;10.55;7.38;;;;;;;14.39;60.30;101539.38;4970190;28;20037;-70
2022/06/21 04:13:53;;;;;;;11.82;7.38;;;;;;;14.41;59.56;101537.13;4958855;28;20522;-69
2022/06/21 04:16:36;;;;;;;13.98;7.53;;;;;;;14.50;59.25;101527.22;4948118;28;20038;-69
2022/06/21 04:19:31;;;;;;;14.25;7.28;;;;;;;14.59;59.25;101539.63;4960739;28;20015;-69
2022/06/21 04:22:12;;;;;;;9.02;6.80;;;;;;;14.55;59.93;101532.03;4949087;28;20054;-69
2022/06/21 04:24:45;;;;;;;9.80;7.15;;;;;;;14.54;59.93;101522.81;4970118;28;20038;-69
2022/06/21 04:27:22;;;;;;;14.23;7.80;;;;;;;14.55;60.25;101523.66;4960391;28;20102;-69
2022/06/21 04:29:54;;;;;;;13.68;7.70;;;;;;;14.53;60.65;101523.06;4960253;28;20028;-69
2022/06/21 04:32:29;;;;;;;14.25;7.70;;;;;;;14.55;60.61;101526.44;4951663;28;20032;-69
2022/06/21 04:35:04;;;;;;;13.63;7.90;;;;;;;14.59;60.64;101513.63;4951859;28;20039;-69
2022/06/21 04:37:53;;;;;;;10.90;7.80;;;;;;;14.65;60.26;101506.97;4962878;28;20034;-69
2022/06/21 04:40:21;;;;;;;12.88;8.00;;;;;;;14.66;60.62;101505.88;4963361;28;20031;-69
2022/06/21 04:43:15;;;;;;;11.02;7.50;;;;;;;14.67;60.31;101514.00;4953613;28;20462;-69
2022/06/21 04:45:50;;;;;;;16.48;7.50;;;;;;;14.69;60.58;101505.34;4944607;28;20043;-69
2022/06/21 04:48:43;;;;;;;12.70;7.97;;;;;;;14.78;59.90;101503.75;4953569;28;20050;-68
2022/06/21 04:51:15;;;;;;;13.43;8.07;;;;;;;14.73;60.75;101500.91;4956591;28;20041;-69
2022/06/21 04:53:54;;;;;;;13.70;7.30;;;;;;;14.86;60.25;101510.81;4956483;28;20087;-69
2022/06/21 04:56:34;;;;;;;12.80;7.97;;;;;;;14.78;60.58;101511.31;4952350;28;20110;-68
2022/06/21 04:59:01;;;;;;;12.07;7.88;;;;;;;14.91;60.64;101505.25;4960597;28;20061;-69
2022/06/21 05:01:30;;;;;;;11.63;7.80;;;;;;;15.01;60.25;101504.50;4957281;28;20046;-68
2022/06/21 05:04:05;;;;;;;15.60;7.80;;;;;;;15.05;60.44;101495.34;4970098;28;20101;-69
2022/06/21 05:06:31;;;;;;;14.85;7.80;;;;;;;15.10;60.43;101506.53;4965738;28;20513;-68
2022/06/21 05:08:56;;;;;;;9.15;7.28;;;;;;;15.10;60.39;101502.91;4955037;28;20035;-69
2022/06/21 05:11:23;;;;;;;13.27;7.80;;;;;;;15.18;60.34;101508.00;4960136;28;20093;-69
2022/06/21 05:13:53;;;;;;;13.05;7.63;;;;;;;15.25;60.29;101504.97;4966786;28;20047;-69
2022/06/21 05:16:23;;;;;;;14.38;7.90;;;;;;;15.27;60.61;101508.34;4946612;29;20475;-69
2022/06/21 05:19:03;;;;;;;15.57;7.47;;;;;;;15.41;59.79;101502.03;4955860;28;20031;-70
2022/06/21 05:21:35;;;;;;;11.23;7.68;;;;;;;15.46;59.93;101493.66;4957506;28;20085;-70
2022/06/21 05:24:01;;;;;;;11.73;7.32;;;;;;;15.46;59.60;101493.66;4952873;29;20033;-69
2022/06/21 05:26:42;;;;;;;12.20;6.57;;;;;;;15.53;59.69;101481.38;4952445;28;20023;-69
2022/06/21 05:29:14;;;;;;;10.48;5.95;;;;;;;15.61;59.06;101486.47;4945599;28;20027;-69
2022/06/21 05:31:45;;;;;;;9.43;5.97;;;;;;;15.64;59.28;101497.09;4959129;28;20043;-68
2022/06/21 05:34:19;;;;;;;9.43;5.95;;;;;;;15.74;59.06;101500.00;4962106;28;20032;-69
2022/06/21 05:37:15;;;;;;;10.65;6.25;;;;;;;15.87;58.89;101513.47;4970627;28;20054;-69
2022/06/21 05:39:46;;;;;;;8.88;5.85;;;;;;;15.90;58.63;101515.75;4950476;28;20035;-69
2022/06/21 05:42:14;;;;;;;12.82;5.60;;;;;;;15.92;58.36;101524.72;4947653;28;20144;-69
2022/06/21 05:44:56;;;;;;;9.50;5.40;;;;;;;15.97;58.21;101511.88;4950558;28;20027;-68
2022/06/21 05:47:34;;;;;;;9.63;5.30;;;;;;;16.05;57.88;101500.97;4949570;28;20024;-68
2022/06/21 05:50:00;;;;;;;10.32;5.07;;;;;;;16.09;57.67;101512.47;4973790;28;20113;-69
2022/06/21 05:52:33;;;;;;;7.47;5.05;;;;;;;16.10;57.98;101519.75;4975622;28;20046;-69
2022/06/21 05:55:14;;;;;;;8.07;4.63;;;;;;;16.10;57.24;101531.78;4982384;28;20030;-69
2022/06/21 05:57:48;;;;;;;10.40;4.85;;;;;;;16.13;57.53;101538.81;4966610;28;20085;-70
2022/06/21 06:00:43;;;;;;;7.90;4.65;;;;;;;16.24;57.29;101532.13;4974308;28;20033;-72
2022/06/21 06:03:22;;;;;;;7.72;4.95;;;;;;;16.27;57.09;101536.34;4981480;28;20614;-71
2022/06/21 06:05:49;;;;;;;9.13;4.65;;;;;;;16.35;56.90;101533.03;4979034;28;20113;-69
2022/06/21 06:08:20;;;;;;;8.48;5.05;;;;;;;16.32;57.12;101534.41;4959174;28;20027;-67
2022/06/21 06:10:47;;;;;;;10.60;4.57;;;;;;;16.40;56.97;101541.44;4959369;28;20490;-68
2022/06/21 06:13:21;;;;;;;8.30;4.45;;;;;;;16.45;56.92;101542.28;4976109;28;20576;-70
2022/06/21 06:15:58;;;;;;;10.98;5.32;;;;;;;16.47;56.70;101546.78;4963503;28;20526;-71
2022/06/21 06:18:44;;;;;;;8.40;4.28;;;;;;;16.56;56.46;101550.72;4969169;28;20503;-71
2022/06/21 06:21:17;;;;;;;11.98;4.40;;;;;;;16.59;56.35;101548.22;4968262;28;20768;-70
2022/06/21 06:24:07;;;;;;;13.93;4.80;;;;;;;16.73;56.17;101556.09;4968724;28;20062;-71
2022/06/21 06:26:38;;;;;;;8.32;4.32;;;;;;;16.71;56.20;101552.72;4967198;28;20110;-70
2022/06/21 06:29:06;;;;;;;7.68;3.80;;;;;;;16.82;55.85;101560.03;4966117;28;20106;-71
2022/06/21 06:31:46;;;;;;;7.47;3.90;;;;;;;16.96;56.34;101563.16;4968014;28;20164;-71
2022/06/21 06:34:15;;;;;;;5.55;3.60;;;;;;;17.04;55.78;101557.84;4974109;28;20031;-70
2022/06/21 06:36:47;;;;;;;12.90;4.05;;;;;;;17.07;54.89;101551.69;4975753;28;20022;-70
2022/06/21 06:39:21;;;;;;;7.20;3.22;;;;;;;17.13;54.39;101555.31;4979950;28;20058;-69
2022/06/21 06:42:12;;;;;;;9.63;2.92;;;;;;;17.10;54.40;101545.50;4979192;28;20035;-69
2022/06/21 06:45:18;;;;;;;6.65;3.08;;;;;;;17.24;54.53;101557.00;4964666;28;20042;-67
2022/06/21 06:47:48;;;;;;;7.20;3.10;;;;;;;17.27;54.15;101567.66;4957838;28;20410;-67
2022/06/21 06:50:23;;;;;;;8.25;3.33;;;;;;;17.32;54.61;101562.03;4950820;28;20586;-68
2022/06/21 06:52:58;;;;;;;8.80;3.20;;;;;;;17.35;54.29;101561.50;4949052;28;20070;-68
2022/06/21 06:55:33;;;;;;;8.05;3.05;;;;;;;17.39;53.67;101558.97;4963686;28;20109;-68
2022/06/21 06:58:08;;;;;;;6.55;3.22;;;;;;;17.43;53.48;101560.91;4970671;28;20034;-69
2022/06/21 07:00:42;;;;;;;6.50;2.75;;;;;;;17.43;52.92;101558.13;4971299;28;20039;-68
2022/06/21 07:03:14;;;;;;;10.07;3.55;;;;;;;17.49;53.02;101563.72;4968608;28;20121;-68
2022/06/21 07:05:40;;;;;;;;;;;;;;;17.64;53.32;101564.56;4973762;28;20041;-68
2022/06/21 07:08:17;;;;;;;9.53;3.33;;;;;;;17.66;52.71;101562.28;4973358;28;19914;-68
2022/06/21 07:10:47;;;;;;;7.03;3.30;;;;;;;17.69;52.43;101552.47;4942754;28;20302;-68
2022/06/21 07:13:12;;;;;;;8.25;3.35;;;;;;;17.72;52.11;101557.50;4966470;28;20031;-69
2022/06/21 07:15:41;;;;;;;8.82;3.58;;;;;;;17.72;52.03;101551.88;4951497;28;20046;-68
2022/06/21 07:18:20;;;;;;;8.70;3.47;;;;;;;17.71;51.92;101555.00;4934249;29;20035;-68
2022/06/21 07:20:45;;;;;;;7.40;3.20;;;;;;;17.81;52.49;101546.59;4932274;29;20028;-68
2022/06/21 07:23:14;;;;;;;9.25;3.35;;;;;;;17.94;52.51;101545.97;4934131;29;20440;-68
2022/06/21 07:25:43;;;;;;;11.38;3.88;;;;;;;17.98;51.95;101543.44;4934263;29;20483;-69
2022/06/21 07:28:20;;;;;;;9.98;3.50;;;;;;;17.99;51.32;101534.72;4933375;28;20111;-68
2022/06/21 07:30:49;;;;;;;4.68;3.08;;;;;;;18.03;51.54;101547.06;4964453;28;20038;-68
2022/06/21 07:33:50;;;;;;;9.75;3.25;;;;;;;18.22;51.46;101547.25;4972091;28;20041;-68
2022/06/21 07:36:31;;;;;;;7.15;3.47;;;;;;;18.24;50.95;101547.84;4928975;28;20094;-68
2022/06/21 07:39:04;;;;;;;7.35;3.70;;;;;;;18.25;50.25;101554.28;4951640;28;20035;-69
2022/06/21 07:41:37;;;;;;;9.52;3.83;;;;;;;18.21;50.13;101554.03;4972477;28;20034;-69
2022/06/21 07:44:10;;;;;;;7.50;3.42;;;;;;;18.22;50.12;101555.69;4958669;28;20027;-68
2022/06/21 07:47:05;;;;;;;9.68;3.75;;;;;;;18.26;50.59;101555.97;4957761;28;20082;-69
2022/06/21 07:49:38;;;;;;;10.45;4.43;;;;;;;18.27;50.54;101547.22;4983478;28;20061;-68
2022/06/21 07:52:13;;;;;;;9.25;3.53;;;;;;;18.32;51.05;101547.22;4992497;28;20023;-70
2022/06/21 07:54:45;;;;;;;9.15;4.00;;;;;;;18.42;50.21;101548.28;4958494;28;20113;-69
2022/06/21 07:57:26;;;;;;;9.60;4.43;;;;;;;18.43;50.13;101536.78;4975811;28;20045;-69
2022/06/21 08:00:05;;;;;;;6.00;3.33;;;;;;;18.64;52.57;101537.50;4972691;28;20023;-67
2022/06/21 08:08:33;;;;;;;9.50;2.80;;;;;;;19.06;47.84;101524.81;4970897;28;20511;-68
2022/06/21 08:11:08;;;;;;;7.65;2.50;;;;;;;19.17;49.41;101520.78;4983023;28;20039;-68
2022/06/21 08:13:33;;;;;;;6.20;2.80;;;;;;;19.06;47.59;101520.06;4981511;28;20038;-65
2022/06/21 08:16:13;;;;;;;5.18;2.80;;;;;;;19.22;50.08;101523.59;4982898;28;20031;-62
2022/06/21 08:18:51;;;;;;;7.85;2.42;;;;;;;19.27;50.07;101526.34;4973819;28;20129;-65
2022/06/21 08:21:29;;;;;;;7.57;2.60;;;;;;;19.41;49.71;101536.91;4994986;28;20054;-66
2022/06/21 08:24:01;;;;;;;8.13;3.35;;;;;;;19.33;47.64;101513.06;4995210;28;20022;-66
2022/06/21 08:26:31;;;;;;;;;;;;;;;19.47;49.30;101513.22;4996176;28;20030;-65
2022/06/21 08:29:20;;;;;;;6.57;2.67;;;;;;;19.50;47.93;101501.38;4992877;28;20012;-64
2022/06/21 08:31:54;;;;;;;6.53;2.40;;;;;;;19.56;47.61;101500.16;4989290;28;20027;-65
2022/06/21 08:34:34;;;;;;;7.60;2.40;;;;;;;19.55;46.94;101490.88;4993824;28;20374;-65
2022/06/21 08:37:08;;;;;;;6.25;2.60;;;;;;;19.43;47.04;101490.44;4986246;28;20023;-65
2022/06/21 08:40:04;;;;;;;8.20;2.40;;;;;;;19.44;47.15;101499.72;4977995;28;20433;-65
2022/06/21 08:42:44;;;;;;;8.73;3.55;;;;;;;19.38;46.84;101496.97;4964700;28;20494;-65
2022/06/21 08:45:43;;;;;;;8.27;3.40;;;;;;;19.32;46.36;101489.69;4993868;28;20378;-65
2022/06/21 08:48:32;;;;;;;5.47;2.55;;;;;;;19.45;48.14;101476.88;4992625;28;20114;-64
2022/06/21 08:51:41;;;;;;;4.75;2.85;;;;;;;19.42;47.44;101471.88;4994089;28;20101;-65
2022/06/21 08:54:26;;;;;;;8.40;3.13;;;;;;;19.40;47.44;101457.25;4992305;28;20113;-65
2022/06/21 08:57:03;;;;;;;7.07;2.88;;;;;;;19.34;46.38;101453.66;4974233;28;20085;-65
2022/06/21 08:59:47;;;;;;;6.53;2.35;;;;;;;19.38;47.19;101454.75;4985470;28;20053;-65
2022/06/21 09:02:47;;;;;;;9.45;3.17;;;;;;;19.32;47.15;101461.56;4994345;28;20050;-65
2022/06/21 09:05:27;;;;;;;8.70;3.22;;;;;;;19.27;46.57;101455.16;4952026;28;20046;-65
2022/06/21 09:08:11;;;;;;;6.53;3.08;;;;;;;19.19;46.44;101451.00;4992807;28;20469;-65
2022/06/21 09:11:07;;;;;;;5.05;2.75;;;;;;;19.22;47.10;101458.84;4957652;28;20086;-65
2022/06/21 09:14:10;;;;;;;9.85;3.08;;;;;;;19.32;47.03;101446.63;4974347;28;20039;-65
2022/06/21 09:16:50;;;;;;;5.70;3.85;;;;;;;19.35;46.61;101438.44;4974890;28;20109;-65
2022/06/21 09:19:43;;;;;;;6.70;3.72;;;;;;;19.34;46.84;101436.78;4984171;28;20026;-65
2022/06/21 09:22:32;;;;;;;9.65;3.70;;;;;;;19.43;47.15;101434.13;4994571;28;20042;-65
2022/06/21 09:25:15;;;;;;;10.30;4.18;;;;;;;19.56;46.70;101429.75;4994034;28;20033;-65
2022/06/21 09:27:47;;;;;;;7.97;4.00;;;;;;;19.68;46.58;101432.19;4977703;28;20027;-65
2022/06/21 09:30:23;;;;;;;4.85;3.97;;;;;;;19.71;46.13;101418.34;4988625;28;20038;-65
2022/06/21 09:33:00;;;;;;;9.85;4.25;;;;;;;19.76;45.83;101420.25;4992694;28;20034;-65
2022/06/21 09:35:51;;;;;;;8.15;3.22;;;;;;;19.94;46.06;101410.16;4994028;28;20459;-65
2022/06/21 09:38:31;;;;;;;9.98;3.83;;;;;;;20.05;45.57;101408.88;4991343;28;20410;-65
2022/06/21 09:41:12;;;;;;;6.38;3.40;;;;;;;20.04;44.54;101415.66;4990430;28;20038;-65
2022/06/21 09:44:01;;;;;;;8.88;3.53;;;;;;;20.07;43.87;101421.50;4984310;28;20026;-65
2022/06/21 09:47:09;;;;;;;9.50;3.08;;;;;;;20.15;44.65;101422.81;4975084;28;20062;-65
2022/06/21 09:49:41;;;;;;;5.13;3.20;;;;;;;20.14;43.45;101425.94;4969494;28;20395;-65
2022/06/21 09:52:30;;;;;;;4.90;3.20;;;;;;;20.21;44.19;101420.78;4988520;28;20030;-65
2022/06/21 09:55:01;;;;;;;5.90;3.05;;;;;;;20.14;43.40;101415.50;4961295;28;20378;-65
2022/06/21 09:57:29;;;;;;;5.90;2.85;;;;;;;20.04;42.54;101410.00;4994298;28;20097;-65
2022/06/21 09:59:54;;;;;;;8.85;3.58;;;;;;;19.96;44.03;101405.88;4991580;28;20045;-65
2022/06/21 10:02:39;;;;;;;7.32;3.42;;;;;;;19.97;44.89;101415.22;4980227;28;20035;-65
2022/06/21 10:05:32;;;;;;;5.65;2.72;;;;;;;19.99;45.30;101413.75;4960346;28;20031;-65
2022/06/21 10:08:16;;;;;;;;;;;;;;;20.06;45.28;101419.00;4987775;28;20050;-65
2022/06/21 10:10:59;;;;;;;5.60;3.30;;;;;;;19.99;44.98;101424.19;4975028;28;19968;-65
2022/06/21 10:13:53;;;;;;;5.25;3.63;;;;;;;19.93;44.88;101422.59;4994930;28;20037;-65
2022/06/21 10:16:40;;;;;;;6.07;3.50;;;;;;;19.90;44.99;101414.72;4993356;28;20038;-64
2022/06/21 10:19:31;;;;;;;7.65;3.25;;;;;;;19.91;45.64;101417.22;4964841;28;20051;-64
2022/06/21 10:22:05;;;;;;;6.90;3.95;;;;;;;19.86;44.81;101414.50;4973754;28;20557;-64
2022/06/21 10:25:05;;;;;;;8.25;3.70;;;;;;;19.92;45.65;101429.34;4985820;28;20034;-64
2022/06/21 10:27:48;;;;;;;5.55;3.97;;;;;;;19.95;45.33;101429.56;4971248;28;20040;-64
2022/06/21 10:30:35;;;;;;;11.05;4.55;;;;;;;19.97;45.84;101430.13;4970242;28;20426;-64
2022/06/21 10:33:27;;;;;;;10.02;4.70;;;;;;;19.99;45.72;101419.38;4974445;28;20375;-64
2022/06/21 10:35:58;;;;;;;5.05;3.35;;;;;;;20.06;46.32;101419.00;4973907;28;20054;-66
2022/06/21 10:38:33;;;;;;;5.35;2.88;;;;;;;20.14;46.08;101426.78;4977503;28;20046;-65
2022/06/21 10:41:23;;;;;;;5.88;3.03;;;;;;;20.16;45.67;101432.09;4974152;28;20034;-65
2022/06/21 10:43:57;;;;;;;9.20;4.22;;;;;;;20.11;45.69;101431.03;4971652;28;20038;-66
2022/06/21 10:46:49;;;;;;;4.43;3.20;;;;;;;20.12;45.65;101423.41;4974712;28;20106;-65
2022/06/21 10:49:19;;;;;;;3.47;2.20;;;;;;;20.29;45.92;101425.72;4972595;28;20121;-66
2022/06/21 10:52:13;;;;;;;7.85;4.28;;;;;;;20.22;45.58;101428.09;4973192;28;20035;-65
2022/06/21 10:54:47;;;;;;;9.52;4.25;;;;;;;20.21;44.15;101417.97;4970311;28;20027;-65
2022/06/21 10:57:51;;;;;;;8.57;4.85;;;;;;;20.19;44.31;101421.06;4963853;28;20038;-65
2022/06/21 11:03:49;;;;;;;8.10;4.03;;;;;;;20.24;44.47;101437.94;4956222;28;20096;-65
2022/06/21 11:06:43;;;;;;;8.40;3.20;;;;;;;20.34;45.14;101442.56;4975849;28;20049;-65
2022/06/21 11:09:20;;;;;;;5.18;2.42;;;;;;;20.42;45.09;101441.03;4973758;28;20031;-65
2022/06/21 11:11:50;;;;;;;9.52;3.65;;;;;;;20.37;44.97;101439.13;4960372;28;20041;-66
2022/06/21 11:14:40;;;;;;;6.03;4.63;;;;;;;20.34;44.65;101436.91;4969621;28;20562;-62
2022/06/21 11:17:38;;;;;;;6.90;4.55;;;;;;;20.31;45.07;101423.44;4970036;28;20038;-65
2022/06/21 11:20:05;;;;;;;13.95;5.00;;;;;;;20.24;44.50;101421.00;4939767;29;20453;-65
2022/06/21 11:22:55;;;;;;;7.75;4.28;;;;;;;20.25;44.56;101431.13;4953555;28;20085;-66
2022/06/21 11:25:26;;;;;;;6.63;3.58;;;;;;;20.26;44.53;101412.25;4965767;28;20030;-66
2022/06/21 11:27:57;;;;;;;5.80;2.92;;;;;;;20.29;45.06;101420.09;4991525;28;20038;-66
2022/06/21 11:30:31;;;;;;;8.65;4.28;;;;;;;20.22;44.72;101416.81;4991955;28;20034;-66
2022/06/21 11:33:24;;;;;;;5.13;2.55;;;;;;;20.35;45.09;101428.16;4991042;28;20109;-66
2022/06/21 11:35:58;;;;;;;;;;;;;;;20.40;44.62;101421.63;4975799;28;20042;-66
2022/06/21 11:38:32;;;;;;;6.50;3.30;;;;;;;20.27;43.40;101422.38;4953261;29;19914;-66
2022/06/21 11:41:06;;;;;;;4.45;3.03;;;;;;;20.34;43.68;101425.66;4952652;29;20027;-66
2022/06/21 11:43:48;;;;;;;5.25;2.97;;;;;;;20.32;42.45;101411.03;4953358;28;20035;-66
2022/06/21 11:46:19;;;;;;;8.25;4.10;;;;;;;20.31;43.72;101415.81;4982403;28;20038;-66
2022/06/21 11:49:03;;;;;;;9.37;5.73;;;;;;;20.29;44.38;101406.84;4991500;28;20081;-66
2022/06/21 11:51:41;;;;;;;10.20;4.68;;;;;;;20.27;44.42;101406.28;4992098;28;20369;-66
2022/06/21 11:54:25;;;;;;;9.35;4.60;;;;;;;20.29;44.04;101411.63;4960463;28;20034;-67
2022/06/21 11:57:15;;;;;;;7.65;4.72;;;;;;;20.32;44.43;101394.94;4995908;28;20022;-66
2022/06/21 11:59:56;;;;;;;3.83;2.58;;;;;;;20.45;43.99;101401.78;4987642;28;20038;-66
2022/06/21 12:02:41;;;;;;;5.22;2.72;;;;;;;20.52;43.59;101405.09;4975535;28;20406;-66
2022/06/21 12:05:32;;;;;;;8.93;4.10;;;;;;;20.50;43.32;101396.09;4976400;28;20034;-64
2022/06/21 12:08:15;;;;;;;8.48;3.53;;;;;;;20.50;43.26;101395.25;4973035;28;20402;-65
2022/06/21 12:10:49;;;;;;;6.82;3.63;;;;;;;20.73;43.49;101390.66;4972769;28;20034;-66
2022/06/21 12:13:42;;;;;;;5.75;2.95;;;;;;;20.86;42.74;101391.81;4981816;28;20033;-65
2022/06/21 12:16:26;;;;;;;;;;;;;;;20.90;42.81;101392.88;4975956;28;20106;-65
2022/06/21 12:18:54;;;;;;;7.65;3.42;;;;;;;20.79;42.27;101386.59;4982387;28;19909;-65
2022/06/21 12:21:24;;;;;;;9.30;2.85;;;;;;;20.89;43.10;101377.94;4984686;28;20023;-65